Kilgetty, United Kingdom
Current Conditions -  °F | °C
As of 1:50 PM on Monday 29 Dec 2014 (Local Time) from EGOP Reporting Station
Clear Clear  
Wind Chill: 41°   Ceiling: Unl
Heat Index: 41°   Visibility: 6mi
Dew Point: 37°   Wind: 2mph
Humidity: 87%   Direction: 40°NE
Pressure: 30.77"   Gusts: NA
Location:  51.73°N, 4.76°W
Report Text: EGOP 291350Z AUTO 04002KT 9999 // NCD 05/03 Q1042
Loading
Personal Weather Stations






























Interactive Weather Map New forecast layout! Learn more

10-Day Weather Forecast

Advertisements
Track Severe Weather on mobile